sensor_id;sensor_type;location;lat;lon;timestamp;pressure;altitude;pressure_sealevel;temperature;humidity
79142;BME280;68550;-26.480;29.234;2023-05-10T00:01:17;84598.43;;;22.23;31.89
79142;BME280;68550;-26.480;29.234;2023-05-10T00:03:38;84592.77;;;22.21;31.91
79142;BME280;68550;-26.480;29.234;2023-05-10T00:06:04;84590.19;;;22.42;31.95
79142;BME280;68550;-26.480;29.234;2023-05-10T00:10:54;84585.69;;;22.24;31.92
79142;BME280;68550;-26.480;29.234;2023-05-10T00:13:20;84586.98;;;22.39;32.00
79142;BME280;68550;-26.480;29.234;2023-05-10T00:15:56;84585.74;;;22.21;31.91
79142;BME280;68550;-26.480;29.234;2023-05-10T00:18:10;84582.92;;;22.14;31.97
79142;BME280;68550;-26.480;29.234;2023-05-10T00:25:41;84582.10;;;22.32;31.76
79142;BME280;68550;-26.480;29.234;2023-05-10T00:27:51;84580.38;;;22.39;31.67
79142;BME280;68550;-26.480;29.234;2023-05-10T00:35:08;84577.17;;;22.25;31.78
79142;BME280;68550;-26.480;29.234;2023-05-10T00:37:33;84573.61;;;22.32;31.73
79142;BME280;68550;-26.480;29.234;2023-05-10T00:42:25;84574.65;;;22.18;31.80
79142;BME280;68550;-26.480;29.234;2023-05-10T00:44:49;84567.82;;;22.46;31.74
79142;BME280;68550;-26.480;29.234;2023-05-10T00:47:14;84567.08;;;22.27;31.74
79142;BME280;68550;-26.480;29.234;2023-05-10T00:59:22;84548.86;;;22.27;31.66
79142;BME280;68550;-26.480;29.234;2023-05-10T01:01:49;84544.77;;;22.33;31.54
79142;BME280;68550;-26.480;29.234;2023-05-10T01:05:07;84548.12;;;21.64;32.34
79142;BME280;68550;-26.480;29.234;2023-05-10T01:07:32;84547.79;;;22.16;32.01
79142;BME280;68550;-26.480;29.234;2023-05-10T01:09:58;84547.70;;;21.99;32.14
79142;BME280;68550;-26.480;29.234;2023-05-10T01:12:23;84544.62;;;22.08;31.79
79142;BME280;68550;-26.480;29.234;2023-05-10T01:14:48;84544.34;;;22.51;31.54
79142;BME280;68550;-26.480;29.234;2023-05-10T01:17:14;84543.37;;;21.99;31.80
79142;BME280;68550;-26.480;29.234;2023-05-10T01:19:39;84538.88;;;22.41;31.66
79142;BME280;68550;-26.480;29.234;2023-05-10T01:22:14;84542.03;;;22.32;31.43
79142;BME280;68550;-26.480;29.234;2023-05-10T01:27:11;84544.38;;;22.21;31.45
79142;BME280;68550;-26.480;29.234;2023-05-10T01:29:30;84546.44;;;22.18;31.70
79142;BME280;68550;-26.480;29.234;2023-05-10T01:31:59;84549.30;;;21.93;31.64
79142;BME280;68550;-26.480;29.234;2023-05-10T01:34:16;84553.02;;;22.07;31.49
79142;BME280;68550;-26.480;29.234;2023-05-10T01:36:43;84553.96;;;22.12;31.45
79142;BME280;68550;-26.480;29.234;2023-05-10T01:39:08;84552.76;;;22.09;31.45
79142;BME280;68550;-26.480;29.234;2023-05-10T01:41:35;84551.56;;;21.92;31.54
79142;BME280;68550;-26.480;29.234;2023-05-10T01:43:57;84550.27;;;22.01;31.69
79142;BME280;68550;-26.480;29.234;2023-05-10T01:46:23;84553.29;;;21.89;31.70
79142;BME280;68550;-26.480;29.234;2023-05-10T01:48:48;84554.96;;;22.38;31.42
79142;BME280;68550;-26.480;29.234;2023-05-10T01:51:09;84553.88;;;22.37;31.42
79142;BME280;68550;-26.480;29.234;2023-05-10T01:53:35;84549.92;;;22.21;31.51
79142;BME280;68550;-26.480;29.234;2023-05-10T01:55:59;84547.93;;;21.85;31.60
79142;BME280;68550;-26.480;29.234;2023-05-10T01:58:29;84547.49;;;21.78;31.97
79142;BME280;68550;-26.480;29.234;2023-05-10T02:00:53;84546.93;;;22.01;31.60
79142;BME280;68550;-26.480;29.234;2023-05-10T02:03:16;84543.18;;;22.12;31.43
79142;BME280;68550;-26.480;29.234;2023-05-10T02:05:42;84543.16;;;22.03;31.55
79142;BME280;68550;-26.480;29.234;2023-05-10T02:08:08;84541.93;;;21.99;31.51
79142;BME280;68550;-26.480;29.234;2023-05-10T02:10:35;84539.02;;;22.03;31.66
79142;BME280;68550;-26.480;29.234;2023-05-10T02:13:00;84539.59;;;21.78;31.60
79142;BME280;68550;-26.480;29.234;2023-05-10T02:15:24;84538.26;;;21.99;31.65
79142;BME280;68550;-26.480;29.234;2023-05-10T02:17:49;84540.05;;;22.30;31.31
79142;BME280;68550;-26.480;29.234;2023-05-10T02:20:16;84536.69;;;22.32;31.29
79142;BME280;68550;-26.480;29.234;2023-05-10T02:22:41;84536.13;;;22.02;31.49
79142;BME280;68550;-26.480;29.234;2023-05-10T02:25:07;84538.44;;;21.97;31.56
79142;BME280;68550;-26.480;29.234;2023-05-10T02:27:31;84539.68;;;22.14;31.33
79142;BME280;68550;-26.480;29.234;2023-05-10T02:29:57;84541.09;;;22.00;31.52
79142;BME280;68550;-26.480;29.234;2023-05-10T02:32:27;84543.61;;;21.96;31.55
79142;BME280;68550;-26.480;29.234;2023-05-10T02:34:47;84544.62;;;21.75;31.56
79142;BME280;68550;-26.480;29.234;2023-05-10T02:37:12;84544.08;;;21.79;31.38
79142;BME280;68550;-26.480;29.234;2023-05-10T02:39:40;84543.93;;;21.89;31.78
79142;BME280;68550;-26.480;29.234;2023-05-10T02:42:03;84545.20;;;21.63;31.60
79142;BME280;68550;-26.480;29.234;2023-05-10T02:44:29;84546.57;;;21.97;31.49
79142;BME280;68550;-26.480;29.234;2023-05-10T02:46:53;84546.42;;;21.76;31.66
79142;BME280;68550;-26.480;29.234;2023-05-10T02:49:19;84545.89;;;21.48;31.99
79142;BME280;68550;-26.480;29.234;2023-05-10T02:51:48;84547.58;;;21.41;31.80
79142;BME280;68550;-26.480;29.234;2023-05-10T02:54:14;84547.73;;;21.79;31.66
79142;BME280;68550;-26.480;29.234;2023-05-10T02:56:39;84550.64;;;21.93;31.54
79142;BME280;68550;-26.480;29.234;2023-05-10T02:59:01;84551.02;;;21.89;31.55
79142;BME280;68550;-26.480;29.234;2023-05-10T03:01:26;84555.82;;;21.74;31.67
79142;BME280;68550;-26.480;29.234;2023-05-10T03:03:52;84555.40;;;21.76;31.65
79142;BME280;68550;-26.480;29.234;2023-05-10T03:06:17;84560.19;;;21.77;31.54
79142;BME280;68550;-26.480;29.234;2023-05-10T03:08:42;84561.33;;;21.61;31.74
79142;BME280;68550;-26.480;29.234;2023-05-10T03:11:28;84563.56;;;21.61;31.70
79142;BME280;68550;-26.480;29.234;2023-05-10T03:13:39;84564.28;;;21.40;31.64
79142;BME280;68550;-26.480;29.234;2023-05-10T03:16:02;84562.51;;;21.68;31.58
79142;BME280;68550;-26.480;29.234;2023-05-10T03:18:28;84561.30;;;21.84;31.38
79142;BME280;68550;-26.480;29.234;2023-05-10T03:20:49;84561.63;;;22.08;31.36
79142;BME280;68550;-26.480;29.234;2023-05-10T03:23:18;84563.37;;;21.85;31.34
79142;BME280;68550;-26.480;29.234;2023-05-10T03:25:40;84563.06;;;21.80;31.35
79142;BME280;68550;-26.480;29.234;2023-05-10T03:28:05;84563.71;;;22.02;31.40
79142;BME280;68550;-26.480;29.234;2023-05-10T03:30:30;84567.48;;;21.93;31.46
79142;BME280;68550;-26.480;29.234;2023-05-10T03:32:56;84565.44;;;21.75;31.67
79142;BME280;68550;-26.480;29.234;2023-05-10T03:35:21;84577.29;;;21.47;31.73
79142;BME280;68550;-26.480;29.234;2023-05-10T03:37:46;84583.20;;;21.42;31.77
79142;BME280;68550;-26.480;29.234;2023-05-10T03:40:12;84582.76;;;21.59;31.60
79142;BME280;68550;-26.480;29.234;2023-05-10T03:42:37;84585.55;;;21.41;31.71
79142;BME280;68550;-26.480;29.234;2023-05-10T03:45:03;84586.81;;;21.98;31.43
79142;BME280;68550;-26.480;29.234;2023-05-10T03:47:27;84592.51;;;21.54;31.57
79142;BME280;68550;-26.480;29.234;2023-05-10T03:49:53;84592.24;;;21.83;31.61
79142;BME280;68550;-26.480;29.234;2023-05-10T03:52:18;84591.40;;;21.62;31.43
79142;BME280;68550;-26.480;29.234;2023-05-10T03:54:44;84590.72;;;21.82;31.51
79142;BME280;68550;-26.480;29.234;2023-05-10T03:57:11;84588.27;;;21.81;31.45
79142;BME280;68550;-26.480;29.234;2023-05-10T03:59:34;84588.84;;;21.67;31.65
79142;BME280;68550;-26.480;29.234;2023-05-10T04:02:00;84591.16;;;21.79;31.34
79142;BME280;68550;-26.480;29.234;2023-05-10T04:04:24;84591.05;;;21.57;31.36
79142;BME280;68550;-26.480;29.234;2023-05-10T04:06:50;84593.68;;;22.00;31.40
79142;BME280;68550;-26.480;29.234;2023-05-10T04:09:16;84599.44;;;21.58;31.36
79142;BME280;68550;-26.480;29.234;2023-05-10T04:11:41;84604.37;;;21.83;31.12
79142;BME280;68550;-26.480;29.234;2023-05-10T04:14:06;84612.65;;;21.89;31.37
79142;BME280;68550;-26.480;29.234;2023-05-10T04:16:32;84613.92;;;21.53;31.26
79142;BME280;68550;-26.480;29.234;2023-05-10T04:18:57;84615.77;;;21.52;31.38
79142;BME280;68550;-26.480;29.234;2023-05-10T04:21:22;84620.85;;;21.73;31.25
79142;BME280;68550;-26.480;29.234;2023-05-10T04:23:48;84625.00;;;21.96;31.28
79142;BME280;68550;-26.480;29.234;2023-05-10T04:26:13;84628.26;;;21.91;31.34
79142;BME280;68550;-26.480;29.234;2023-05-10T04:28:38;84630.10;;;21.99;31.23
79142;BME280;68550;-26.480;29.234;2023-05-10T04:31:05;84632.44;;;21.99;31.22
79142;BME280;68550;-26.480;29.234;2023-05-10T04:33:29;84637.93;;;21.83;31.14
79142;BME280;68550;-26.480;29.234;2023-05-10T04:35:54;84640.16;;;21.75;31.23
79142;BME280;68550;-26.480;29.234;2023-05-10T04:38:22;84643.64;;;22.06;31.12
79142;BME280;68550;-26.480;29.234;2023-05-10T04:40:45;84641.92;;;21.76;31.22
79142;BME280;68550;-26.480;29.234;2023-05-10T04:43:11;84640.43;;;21.78;31.17
79142;BME280;68550;-26.480;29.234;2023-05-10T04:45:38;84637.75;;;21.66;31.26
79142;BME280;68550;-26.480;29.234;2023-05-10T04:48:02;84637.45;;;21.54;31.26
79142;BME280;68550;-26.480;29.234;2023-05-10T04:50:28;84638.43;;;21.38;31.63
79142;BME280;68550;-26.480;29.234;2023-05-10T04:52:54;84638.46;;;21.77;31.75
79142;BME280;68550;-26.480;29.234;2023-05-10T04:55:19;84636.27;;;21.54;31.98
79142;BME280;68550;-26.480;29.234;2023-05-10T04:57:46;84636.75;;;21.78;31.96
79142;BME280;68550;-26.480;29.234;2023-05-10T05:00:11;84636.71;;;21.55;31.87
79142;BME280;68550;-26.480;29.234;2023-05-10T05:04:08;84644.20;;;20.31;34.37
79142;BME280;68550;-26.480;29.234;2023-05-10T05:06:26;84643.14;;;20.66;33.47
79142;BME280;68550;-26.480;29.234;2023-05-10T05:08:51;84644.47;;;20.97;33.03
79142;BME280;68550;-26.480;29.234;2023-05-10T05:11:17;84642.89;;;21.11;32.77
79142;BME280;68550;-26.480;29.234;2023-05-10T05:13:42;84645.16;;;21.34;32.47
79142;BME280;68550;-26.480;29.234;2023-05-10T05:16:09;84644.61;;;21.44;32.30
79142;BME280;68550;-26.480;29.234;2023-05-10T05:18:35;84644.87;;;21.66;31.98
79142;BME280;68550;-26.480;29.234;2023-05-10T05:20:58;84646.87;;;21.66;32.05
79142;BME280;68550;-26.480;29.234;2023-05-10T05:23:23;84649.46;;;21.22;31.44
79142;BME280;68550;-26.480;29.234;2023-05-10T05:25:49;84651.91;;;21.33;32.03
79142;BME280;68550;-26.480;29.234;2023-05-10T05:28:15;84652.53;;;21.40;32.07
79142;BME280;68550;-26.480;29.234;2023-05-10T05:30:42;84650.97;;;21.45;31.93
79142;BME280;68550;-26.480;29.234;2023-05-10T05:33:06;84649.86;;;21.31;31.81
79142;BME280;68550;-26.480;29.234;2023-05-10T05:35:31;84642.98;;;21.65;31.65
79142;BME280;68550;-26.480;29.234;2023-05-10T05:37:56;84642.89;;;21.73;31.56
79142;BME280;68550;-26.480;29.234;2023-05-10T05:40:22;84641.04;;;21.80;31.49
79142;BME280;68550;-26.480;29.234;2023-05-10T05:42:48;84641.92;;;21.86;31.45
79142;BME280;68550;-26.480;29.234;2023-05-10T05:45:13;84640.93;;;21.67;31.66
79142;BME280;68550;-26.480;29.234;2023-05-10T05:47:38;84642.01;;;21.76;31.31
79142;BME280;68550;-26.480;29.234;2023-05-10T05:50:03;84638.99;;;21.81;31.51
79142;BME280;68550;-26.480;29.234;2023-05-10T05:52:48;84640.17;;;21.73;31.35
79142;BME280;68550;-26.480;29.234;2023-05-10T05:55:17;84640.60;;;21.66;31.43
79142;BME280;68550;-26.480;29.234;2023-05-10T05:59:52;84644.46;;;21.83;31.25
79142;BME280;68550;-26.480;29.234;2023-05-10T06:02:23;84648.82;;;22.17;31.11
79142;BME280;68550;-26.480;29.234;2023-05-10T06:09:27;84657.14;;;21.81;31.24
79142;BME280;68550;-26.480;29.234;2023-05-10T06:11:53;84656.59;;;21.62;31.21
79142;BME280;68550;-26.480;29.234;2023-05-10T06:14:21;84657.64;;;22.15;31.15
79142;BME280;68550;-26.480;29.234;2023-05-10T06:16:43;84655.83;;;21.83;31.26
79142;BME280;68550;-26.480;29.234;2023-05-10T06:19:13;84656.16;;;22.21;31.13
79142;BME280;68550;-26.480;29.234;2023-05-10T06:21:34;84658.58;;;22.02;31.11
79142;BME280;68550;-26.480;29.234;2023-05-10T06:24:00;84660.11;;;21.95;31.16
79142;BME280;68550;-26.480;29.234;2023-05-10T06:26:25;84662.93;;;21.86;31.30
79142;BME280;68550;-26.480;29.234;2023-05-10T06:28:51;84664.45;;;21.96;31.29
79142;BME280;68550;-26.480;29.234;2023-05-10T06:31:38;84665.37;;;21.91;31.33
79142;BME280;68550;-26.480;29.234;2023-05-10T06:34:04;84667.74;;;21.70;31.38
79142;BME280;68550;-26.480;29.234;2023-05-10T06:36:20;84668.92;;;22.15;31.23
79142;BME280;68550;-26.480;29.234;2023-05-10T06:38:32;84669.47;;;22.35;31.41
79142;BME280;68550;-26.480;29.234;2023-05-10T06:40:58;84669.40;;;22.16;31.28
79142;BME280;68550;-26.480;29.234;2023-05-10T06:46:14;84668.44;;;21.92;31.31
79142;BME280;68550;-26.480;29.234;2023-05-10T06:50:40;84673.25;;;22.31;31.22
79142;BME280;68550;-26.480;29.234;2023-05-10T06:53:30;84674.03;;;22.44;31.06
79142;BME280;68550;-26.480;29.234;2023-05-10T06:55:53;84676.86;;;22.34;31.22
79142;BME280;68550;-26.480;29.234;2023-05-10T06:57:59;84675.38;;;22.15;31.16
79142;BME280;68550;-26.480;29.234;2023-05-10T07:00:22;84673.50;;;22.48;31.11
79142;BME280;68550;-26.480;29.234;2023-05-10T07:02:50;84673.25;;;22.20;31.17
79142;BME280;68550;-26.480;29.234;2023-05-10T07:05:13;84670.50;;;22.48;31.16
79142;BME280;68550;-26.480;29.234;2023-05-10T07:07:39;84672.07;;;22.47;31.20
79142;BME280;68550;-26.480;29.234;2023-05-10T07:10:08;84680.27;;;22.51;31.17
79142;BME280;68550;-26.480;29.234;2023-05-10T07:14:55;84684.94;;;22.18;31.34
79142;BME280;68550;-26.480;29.234;2023-05-10T07:19:46;84689.04;;;22.46;31.37
79142;BME280;68550;-26.480;29.234;2023-05-10T07:22:11;84690.68;;;22.56;31.29
79142;BME280;68550;-26.480;29.234;2023-05-10T07:24:37;84688.50;;;22.39;31.28
79142;BME280;68550;-26.480;29.234;2023-05-10T07:27:02;84691.09;;;22.62;31.31
79142;BME280;68550;-26.480;29.234;2023-05-10T07:29:27;84689.92;;;22.23;31.50
79142;BME280;68550;-26.480;29.234;2023-05-10T07:31:53;84688.63;;;22.33;31.41
79142;BME280;68550;-26.480;29.234;2023-05-10T07:36:46;84688.86;;;22.70;31.46
79142;BME280;68550;-26.480;29.234;2023-05-10T07:39:09;84689.15;;;22.70;31.43
79142;BME280;68550;-26.480;29.234;2023-05-10T07:41:35;84688.27;;;22.71;31.41
79142;BME280;68550;-26.480;29.234;2023-05-10T07:44:29;84684.09;;;22.44;31.48
79142;BME280;68550;-26.480;29.234;2023-05-10T07:46:26;84682.75;;;22.43;31.52
79142;BME280;68550;-26.480;29.234;2023-05-10T07:48:51;84683.79;;;22.70;31.51
79142;BME280;68550;-26.480;29.234;2023-05-10T07:51:18;84681.51;;;22.69;31.51
79142;BME280;68550;-26.480;29.234;2023-05-10T07:53:42;84675.90;;;22.65;31.60
79142;BME280;68550;-26.480;29.234;2023-05-10T08:08:49;84670.98;;;22.39;31.51
79142;BME280;68550;-26.480;29.234;2023-05-10T08:10:55;84667.31;;;22.51;31.69
79142;BME280;68550;-26.480;29.234;2023-05-10T08:13:05;84661.30;;;22.61;31.56
79142;BME280;68550;-26.480;29.234;2023-05-10T08:15:55;84655.86;;;22.62;31.56
79142;BME280;68550;-26.480;29.234;2023-05-10T08:18:20;84655.57;;;22.81;31.38
79142;BME280;68550;-26.480;29.234;2023-05-10T08:20:40;84652.76;;;22.96;31.24
79142;BME280;68550;-26.480;29.234;2023-05-10T08:30:07;84645.05;;;22.95;31.53
79142;BME280;68550;-26.480;29.234;2023-05-10T08:37:20;84648.65;;;23.02;31.50
79142;BME280;68550;-26.480;29.234;2023-05-10T08:44:37;84643.74;;;22.99;31.56
79142;BME280;68550;-26.480;29.234;2023-05-10T08:47:25;84644.47;;;22.74;31.65
79142;BME280;68550;-26.480;29.234;2023-05-10T08:52:12;84639.97;;;22.92;31.75
79142;BME280;68550;-26.480;29.234;2023-05-10T09:01:36;84631.98;;;22.81;31.42
79142;BME280;68550;-26.480;29.234;2023-05-10T09:05:37;84628.41;;;22.57;32.09
79142;BME280;68550;-26.480;29.234;2023-05-10T09:07:58;84627.77;;;22.78;31.88
79142;BME280;68550;-26.480;29.234;2023-05-10T09:10:24;84624.72;;;22.69;32.00
79142;BME280;68550;-26.480;29.234;2023-05-10T09:12:50;84604.37;;;22.68;31.76
79142;BME280;68550;-26.480;29.234;2023-05-10T09:15:16;84621.68;;;22.94;32.00
79142;BME280;68550;-26.480;29.234;2023-05-10T09:17:41;84615.20;;;22.90;31.79
79142;BME280;68550;-26.480;29.234;2023-05-10T09:20:07;84615.96;;;22.56;32.51
79142;BME280;68550;-26.480;29.234;2023-05-10T09:22:31;84607.25;;;23.08;31.93
79142;BME280;68550;-26.480;29.234;2023-05-10T09:25:06;84608.20;;;22.80;32.00
79142;BME280;68550;-26.480;29.234;2023-05-10T09:27:26;84606.47;;;23.01;32.06
79142;BME280;68550;-26.480;29.234;2023-05-10T09:29:47;84599.50;;;23.14;31.90
79142;BME280;68550;-26.480;29.234;2023-05-10T09:32:16;84594.55;;;23.01;32.07
79142;BME280;68550;-26.480;29.234;2023-05-10T09:34:39;84591.36;;;22.56;32.28
79142;BME280;68550;-26.480;29.234;2023-05-10T09:37:04;84586.46;;;22.71;32.12
79142;BME280;68550;-26.480;29.234;2023-05-10T09:39:33;84578.49;;;22.73;32.10
79142;BME280;68550;-26.480;29.234;2023-05-10T09:41:55;84581.00;;;22.87;32.24
79142;BME280;68550;-26.480;29.234;2023-05-10T09:44:21;84578.09;;;23.23;32.10
79142;BME280;68550;-26.480;29.234;2023-05-10T09:46:51;84575.96;;;22.95;32.14
79142;BME280;68550;-26.480;29.234;2023-05-10T09:49:15;84575.64;;;22.40;32.23
79142;BME280;68550;-26.480;29.234;2023-05-10T09:51:36;84570.94;;;22.41;32.21
79142;BME280;68550;-26.480;29.234;2023-05-10T09:54:12;84569.29;;;22.67;32.16
79142;BME280;68550;-26.480;29.234;2023-05-10T09:56:34;84563.38;;;23.21;32.14
79142;BME280;68550;-26.480;29.234;2023-05-10T09:59:02;84563.91;;;22.73;32.14
79142;BME280;68550;-26.480;29.234;2023-05-10T10:01:18;84564.13;;;22.91;32.19
79142;BME280;68550;-26.480;29.234;2023-05-10T10:03:44;84555.36;;;23.07;32.00
79142;BME280;68550;-26.480;29.234;2023-05-10T10:06:09;84553.12;;;22.88;32.26
79142;BME280;68550;-26.480;29.234;2023-05-10T10:08:35;84542.54;;;22.60;32.27
79142;BME280;68550;-26.480;29.234;2023-05-10T10:11:01;84544.79;;;22.97;32.12
79142;BME280;68550;-26.480;29.234;2023-05-10T10:13:26;84540.98;;;23.07;32.01
79142;BME280;68550;-26.480;29.234;2023-05-10T10:15:53;84535.33;;;22.85;31.99
79142;BME280;68550;-26.480;29.234;2023-05-10T10:18:17;84540.91;;;22.99;32.09
79142;BME280;68550;-26.480;29.234;2023-05-10T10:20:43;84536.69;;;22.91;32.23
79142;BME280;68550;-26.480;29.234;2023-05-10T10:23:09;84532.05;;;22.99;31.91
79142;BME280;68550;-26.480;29.234;2023-05-10T10:25:33;84525.85;;;23.10;32.09
79142;BME280;68550;-26.480;29.234;2023-05-10T10:28:10;84521.77;;;23.02;32.16
79142;BME280;68550;-26.480;29.234;2023-05-10T10:30:28;84515.93;;;23.11;32.05
79142;BME280;68550;-26.480;29.234;2023-05-10T10:35:16;84505.53;;;22.83;32.11
79142;BME280;68550;-26.480;29.234;2023-05-10T10:37:46;84500.08;;;22.87;32.10
79142;BME280;68550;-26.480;29.234;2023-05-10T10:42:44;84488.56;;;22.85;32.11
79142;BME280;68550;-26.480;29.234;2023-05-10T10:47:23;84483.78;;;23.00;32.17
79142;BME280;68550;-26.480;29.234;2023-05-10T10:49:50;84480.06;;;22.87;32.07
79142;BME280;68550;-26.480;29.234;2023-05-10T10:52:15;84471.64;;;22.86;31.90
79142;BME280;68550;-26.480;29.234;2023-05-10T10:54:38;84473.36;;;23.10;32.12
79142;BME280;68550;-26.480;29.234;2023-05-10T10:57:11;84474.52;;;23.15;32.05
79142;BME280;68550;-26.480;29.234;2023-05-10T10:59:32;84472.67;;;22.93;32.06
79142;BME280;68550;-26.480;29.234;2023-05-10T11:01:57;84466.58;;;23.14;32.05
79142;BME280;68550;-26.480;29.234;2023-05-10T11:04:21;84460.73;;;22.93;32.02
79142;BME280;68550;-26.480;29.234;2023-05-10T11:06:47;84458.31;;;22.93;32.01
79142;BME280;68550;-26.480;29.234;2023-05-10T11:09:12;84453.52;;;22.95;32.00
79142;BME280;68550;-26.480;29.234;2023-05-10T11:11:51;84452.55;;;22.87;32.12
79142;BME280;68550;-26.480;29.234;2023-05-10T11:14:04;84448.89;;;22.92;32.08
79142;BME280;68550;-26.480;29.234;2023-05-10T11:16:27;84447.88;;;23.08;31.94
79142;BME280;68550;-26.480;29.234;2023-05-10T11:18:59;84442.42;;;23.23;32.00
79142;BME280;68550;-26.480;29.234;2023-05-10T11:21:18;84441.87;;;22.87;32.05
79142;BME280;68550;-26.480;29.234;2023-05-10T11:23:50;84443.64;;;23.02;31.91
79142;BME280;68550;-26.480;29.234;2023-05-10T11:26:10;84434.72;;;23.07;31.88
79142;BME280;68550;-26.480;29.234;2023-05-10T11:28:40;84430.77;;;23.17;32.05
79142;BME280;68550;-26.480;29.234;2023-05-10T11:31:00;84429.08;;;23.16;31.99
79142;BME280;68550;-26.480;29.234;2023-05-10T11:33:25;84420.89;;;22.70;31.99
79142;BME280;68550;-26.480;29.234;2023-05-10T11:35:51;84416.91;;;23.25;31.96
79142;BME280;68550;-26.480;29.234;2023-05-10T11:38:16;84415.71;;;22.93;31.98
79142;BME280;68550;-26.480;29.234;2023-05-10T11:40:42;84416.29;;;22.86;32.13
79142;BME280;68550;-26.480;29.234;2023-05-10T11:43:09;84415.88;;;22.89;31.97
79142;BME280;68550;-26.480;29.234;2023-05-10T11:45:39;84416.44;;;23.08;31.98
79142;BME280;68550;-26.480;29.234;2023-05-10T11:48:00;84412.20;;;22.62;32.01
79142;BME280;68550;-26.480;29.234;2023-05-10T11:50:24;84408.81;;;23.26;31.94
79142;BME280;68550;-26.480;29.234;2023-05-10T11:52:51;84411.69;;;22.77;32.16
79142;BME280;68550;-26.480;29.234;2023-05-10T11:55:15;84408.70;;;23.05;32.06
79142;BME280;68550;-26.480;29.234;2023-05-10T11:57:41;84399.46;;;23.15;31.94
79142;BME280;68550;-26.480;29.234;2023-05-10T12:00:07;84399.41;;;22.79;31.88
79142;BME280;68550;-26.480;29.234;2023-05-10T12:02:31;84397.55;;;22.80;32.03
79142;BME280;68550;-26.480;29.234;2023-05-10T12:04:57;84395.94;;;22.98;31.90
79142;BME280;68550;-26.480;29.234;2023-05-10T12:07:22;84392.33;;;23.28;31.84
79142;BME280;68550;-26.480;29.234;2023-05-10T12:12:17;84383.79;;;22.91;31.96
79142;BME280;68550;-26.480;29.234;2023-05-10T12:14:38;84385.59;;;23.25;31.87
79142;BME280;68550;-26.480;29.234;2023-05-10T12:17:04;84386.38;;;23.11;31.76
79142;BME280;68550;-26.480;29.234;2023-05-10T12:19:29;84384.99;;;23.01;31.88
79142;BME280;68550;-26.480;29.234;2023-05-10T12:21:54;84383.79;;;22.94;31.97
79142;BME280;68550;-26.480;29.234;2023-05-10T12:24:22;84386.63;;;23.24;31.83
79142;BME280;68550;-26.480;29.234;2023-05-10T12:26:46;84387.56;;;22.98;31.82
79142;BME280;68550;-26.480;29.234;2023-05-10T12:29:15;84385.54;;;22.84;31.81
79142;BME280;68550;-26.480;29.234;2023-05-10T12:34:02;84386.62;;;22.83;31.57
79142;BME280;68550;-26.480;29.234;2023-05-10T12:36:27;84387.30;;;22.79;31.61
79142;BME280;68550;-26.480;29.234;2023-05-10T12:39:02;84385.31;;;23.39;31.56
79142;BME280;68550;-26.480;29.234;2023-05-10T12:41:18;84384.33;;;22.97;31.68
79142;BME280;68550;-26.480;29.234;2023-05-10T12:43:44;84385.10;;;23.15;31.55
79142;BME280;68550;-26.480;29.234;2023-05-10T12:46:10;84383.59;;;22.74;31.64
79142;BME280;68550;-26.480;29.234;2023-05-10T12:48:35;84383.50;;;23.19;31.74
79142;BME280;68550;-26.480;29.234;2023-05-10T12:51:00;84380.26;;;23.12;31.56
79142;BME280;68550;-26.480;29.234;2023-05-10T12:53:26;84378.44;;;22.92;31.77
79142;BME280;68550;-26.480;29.234;2023-05-10T12:55:51;84382.18;;;22.84;31.64
79142;BME280;68550;-26.480;29.234;2023-05-10T12:58:17;84380.45;;;23.21;31.62
79142;BME280;68550;-26.480;29.234;2023-05-10T13:00:42;84384.29;;;23.30;31.59
79142;BME280;68550;-26.480;29.234;2023-05-10T13:11:21;84384.19;;;22.45;32.64
79142;BME280;68550;-26.480;29.234;2023-05-10T13:18:41;84378.06;;;22.75;31.71
79142;BME280;68550;-26.480;29.234;2023-05-10T13:21:03;84381.46;;;22.98;31.74
79142;BME280;68550;-26.480;29.234;2023-05-10T13:23:28;84383.60;;;23.14;31.77
79142;BME280;68550;-26.480;29.234;2023-05-10T13:25:53;84382.30;;;23.10;31.75
79142;BME280;68550;-26.480;29.234;2023-05-10T13:28:19;84387.25;;;22.99;31.68
79142;BME280;68550;-26.480;29.234;2023-05-10T13:30:45;84389.06;;;23.16;31.69
79142;BME280;68550;-26.480;29.234;2023-05-10T13:40:31;84395.28;;;22.65;31.73
79142;BME280;68550;-26.480;29.234;2023-05-10T13:42:51;84396.57;;;22.81;31.60
79142;BME280;68550;-26.480;29.234;2023-05-10T13:45:20;84398.44;;;22.87;31.76
79142;BME280;68550;-26.480;29.234;2023-05-10T13:47:42;84398.23;;;23.25;31.62
79142;BME280;68550;-26.480;29.234;2023-05-10T13:50:08;84400.62;;;22.71;31.68
79142;BME280;68550;-26.480;29.234;2023-05-10T13:52:33;84399.82;;;22.93;31.77
79142;BME280;68550;-26.480;29.234;2023-05-10T13:54:59;84402.65;;;22.81;31.61
79142;BME280;68550;-26.480;29.234;2023-05-10T13:57:28;84403.46;;;23.04;31.84
79142;BME280;68550;-26.480;29.234;2023-05-10T14:00:01;84403.21;;;23.08;31.64
79142;BME280;68550;-26.480;29.234;2023-05-10T14:02:15;84403.17;;;22.86;31.58
79142;BME280;68550;-26.480;29.234;2023-05-10T14:19:15;84408.50;;;23.10;31.42
79142;BME280;68550;-26.480;29.234;2023-05-10T14:21:39;84408.33;;;23.37;31.43
79142;BME280;68550;-26.480;29.234;2023-05-10T14:24:05;84407.60;;;23.35;31.44
79142;BME280;68550;-26.480;29.234;2023-05-10T14:26:30;84405.71;;;23.04;31.55
79142;BME280;68550;-26.480;29.234;2023-05-10T14:28:55;84407.73;;;23.09;31.52
79142;BME280;68550;-26.480;29.234;2023-05-10T14:36:32;84408.27;;;23.29;31.66
79142;BME280;68550;-26.480;29.234;2023-05-10T14:39:09;84405.13;;;23.16;31.52
79142;BME280;68550;-26.480;29.234;2023-05-10T14:41:02;84405.59;;;23.02;31.67
79142;BME280;68550;-26.480;29.234;2023-05-10T14:50:44;84414.97;;;23.31;31.66
79142;BME280;68550;-26.480;29.234;2023-05-10T14:53:09;84415.54;;;23.61;31.61
79142;BME280;68550;-26.480;29.234;2023-05-10T14:55:35;84417.42;;;23.40;31.59
79142;BME280;68550;-26.480;29.234;2023-05-10T14:58:02;84420.36;;;23.52;31.74